首页
METAR-TAF:

METAR-TAF

机场 :

莱克城, 佛罗里达州, 美国

纬度: 30-10-55N, 经度: 082-34-37W, 海拔: 61米

当前天气观测

该预报发布于26分钟前的16:50 UTC
风速4节,风向西
温度 11°C
湿度 54%
气压 1026 hPa
能見度: 16.1公里
天空无云

METAR: KLCQ 121650Z AUTO 27004KT 10SM CLR 11/02 A3031 RMK AO2

时间: 12:16 (17:16 UTC)


TAF: 丢失

超过4000个机场的气象观测和天气预报(METAR&TAF报告)。

可查询的气象台以黄色和红色小点在地图上表示。

将鼠标移到小点上方,可查看气象台名称。

然后点击查看天气观测和预报。

如需切换地图:点击带黑十字的绿色按钮放大地图;点击带横线的绿色按钮缩小地图;或者点击绿色箭头查看邻近地区的地图。


METAR-TAF: